sensor_id;sensor_type;location;lat;lon;timestamp;P1;durP1;ratioP1;P2;durP2;ratioP2
2544;SDS011;36212;48.838;9.142;2023-07-28T00:02:08;2.90;;;2.73;;
2544;SDS011;36212;48.838;9.142;2023-07-28T00:04:40;3.40;;;3.20;;
2544;SDS011;36212;48.838;9.142;2023-07-28T00:07:13;3.10;;;2.90;;
2544;SDS011;36212;48.838;9.142;2023-07-28T00:09:45;3.43;;;3.13;;
2544;SDS011;36212;48.838;9.142;2023-07-28T00:12:17;3.63;;;3.43;;
2544;SDS011;36212;48.838;9.142;2023-07-28T00:14:49;3.20;;;3.00;;
2544;SDS011;36212;48.838;9.142;2023-07-28T00:17:21;4.43;;;3.40;;
2544;SDS011;36212;48.838;9.142;2023-07-28T00:19:53;4.50;;;2.90;;
2544;SDS011;36212;48.838;9.142;2023-07-28T00:22:26;3.10;;;2.90;;
2544;SDS011;36212;48.838;9.142;2023-07-28T00:24:58;3.40;;;3.20;;
2544;SDS011;36212;48.838;9.142;2023-07-28T00:27:30;3.73;;;3.53;;
2544;SDS011;36212;48.838;9.142;2023-07-28T00:30:02;3.53;;;3.33;;
2544;SDS011;36212;48.838;9.142;2023-07-28T00:32:35;3.63;;;3.33;;
2544;SDS011;36212;48.838;9.142;2023-07-28T00:35:07;3.80;;;3.40;;
2544;SDS011;36212;48.838;9.142;2023-07-28T00:37:39;4.07;;;3.67;;
2544;SDS011;36212;48.838;9.142;2023-07-28T00:40:12;3.33;;;3.13;;
2544;SDS011;36212;48.838;9.142;2023-07-28T00:42:44;3.10;;;2.90;;
2544;SDS011;36212;48.838;9.142;2023-07-28T00:45:17;3.60;;;3.40;;
2544;SDS011;36212;48.838;9.142;2023-07-28T00:47:50;3.77;;;3.50;;
2544;SDS011;36212;48.838;9.142;2023-07-28T00:50:23;3.13;;;2.93;;
2544;SDS011;36212;48.838;9.142;2023-07-28T00:52:56;3.43;;;3.23;;
2544;SDS011;36212;48.838;9.142;2023-07-28T00:55:28;3.60;;;3.30;;
2544;SDS011;36212;48.838;9.142;2023-07-28T00:58:01;3.30;;;3.10;;
2544;SDS011;36212;48.838;9.142;2023-07-28T01:00:33;3.60;;;3.40;;
2544;SDS011;36212;48.838;9.142;2023-07-28T01:03:05;3.57;;;3.37;;
2544;SDS011;36212;48.838;9.142;2023-07-28T01:11:31;3.73;;;3.43;;
2544;SDS011;36212;48.838;9.142;2023-07-28T01:14:03;3.30;;;3.10;;
2544;SDS011;36212;48.838;9.142;2023-07-28T01:16:36;3.63;;;3.33;;
2544;SDS011;36212;48.838;9.142;2023-07-28T01:19:08;3.10;;;2.90;;
2544;SDS011;36212;48.838;9.142;2023-07-28T01:22:00;3.40;;;3.20;;
2544;SDS011;36212;48.838;9.142;2023-07-28T01:28:30;3.70;;;3.40;;
2544;SDS011;36212;48.838;9.142;2023-07-28T01:31:07;3.93;;;3.63;;
2544;SDS011;36212;48.838;9.142;2023-07-28T01:33:40;3.53;;;3.27;;
2544;SDS011;36212;48.838;9.142;2023-07-28T01:36:12;3.50;;;3.20;;
2544;SDS011;36212;48.838;9.142;2023-07-28T01:38:44;4.10;;;3.80;;
2544;SDS011;36212;48.838;9.142;2023-07-28T01:41:17;3.77;;;3.57;;
2544;SDS011;36212;48.838;9.142;2023-07-28T01:43:49;3.60;;;3.40;;
2544;SDS011;36212;48.838;9.142;2023-07-28T01:46:22;3.43;;;3.13;;
2544;SDS011;36212;48.838;9.142;2023-07-28T01:48:54;3.20;;;3.00;;
2544;SDS011;36212;48.838;9.142;2023-07-28T01:51:26;3.70;;;3.40;;
2544;SDS011;36212;48.838;9.142;2023-07-28T01:53:58;3.80;;;3.50;;
2544;SDS011;36212;48.838;9.142;2023-07-28T01:56:30;4.07;;;3.77;;
2544;SDS011;36212;48.838;9.142;2023-07-28T01:59:03;3.67;;;3.47;;
2544;SDS011;36212;48.838;9.142;2023-07-28T02:01:37;4.47;;;4.17;;
2544;SDS011;36212;48.838;9.142;2023-07-28T02:04:09;3.47;;;3.27;;
2544;SDS011;36212;48.838;9.142;2023-07-28T02:06:41;4.23;;;3.83;;
2544;SDS011;36212;48.838;9.142;2023-07-28T02:09:13;3.20;;;3.00;;
2544;SDS011;36212;48.838;9.142;2023-07-28T02:11:47;4.00;;;3.70;;
2544;SDS011;36212;48.838;9.142;2023-07-28T02:14:19;4.20;;;3.90;;
2544;SDS011;36212;48.838;9.142;2023-07-28T02:16:51;3.53;;;3.33;;
2544;SDS011;36212;48.838;9.142;2023-07-28T02:19:24;4.40;;;4.17;;
2544;SDS011;36212;48.838;9.142;2023-07-28T02:21:56;4.30;;;4.00;;
2544;SDS011;36212;48.838;9.142;2023-07-28T02:24:28;6.20;;;4.17;;
2544;SDS011;36212;48.838;9.142;2023-07-28T02:27:00;4.50;;;4.13;;
2544;SDS011;36212;48.838;9.142;2023-07-28T02:29:32;4.53;;;4.13;;
2544;SDS011;36212;48.838;9.142;2023-07-28T02:32:05;4.70;;;4.30;;
2544;SDS011;36212;48.838;9.142;2023-07-28T02:34:37;4.23;;;3.83;;
2544;SDS011;36212;48.838;9.142;2023-07-28T02:37:10;4.53;;;4.20;;
2544;SDS011;36212;48.838;9.142;2023-07-28T02:39:42;4.45;;;4.15;;
2544;SDS011;36212;48.838;9.142;2023-07-28T02:42:14;5.67;;;5.07;;
2544;SDS011;36212;48.838;9.142;2023-07-28T02:44:46;4.20;;;3.80;;
2544;SDS011;36212;48.838;9.142;2023-07-28T02:47:18;4.30;;;4.00;;
2544;SDS011;36212;48.838;9.142;2023-07-28T02:49:50;4.60;;;4.23;;
2544;SDS011;36212;48.838;9.142;2023-07-28T02:52:22;4.07;;;3.77;;
2544;SDS011;36212;48.838;9.142;2023-07-28T02:54:55;4.35;;;4.05;;
2544;SDS011;36212;48.838;9.142;2023-07-28T02:57:27;3.88;;;3.58;;
2544;SDS011;36212;48.838;9.142;2023-07-28T02:59:59;4.30;;;3.97;;
2544;SDS011;36212;48.838;9.142;2023-07-28T03:02:31;4.22;;;3.92;;
2544;SDS011;36212;48.838;9.142;2023-07-28T03:05:04;4.95;;;4.00;;
2544;SDS011;36212;48.838;9.142;2023-07-28T03:07:37;4.10;;;3.73;;
2544;SDS011;36212;48.838;9.142;2023-07-28T03:10:09;4.43;;;4.03;;
2544;SDS011;36212;48.838;9.142;2023-07-28T03:12:46;4.10;;;3.80;;
2544;SDS011;36212;48.838;9.142;2023-07-28T03:15:18;3.83;;;3.53;;
2544;SDS011;36212;48.838;9.142;2023-07-28T03:17:53;3.87;;;3.57;;
2544;SDS011;36212;48.838;9.142;2023-07-28T03:20:26;3.70;;;3.50;;
2544;SDS011;36212;48.838;9.142;2023-07-28T03:22:59;4.60;;;3.23;;
2544;SDS011;36212;48.838;9.142;2023-07-28T03:25:31;4.00;;;3.67;;
2544;SDS011;36212;48.838;9.142;2023-07-28T03:28:04;3.93;;;3.63;;
2544;SDS011;36212;48.838;9.142;2023-07-28T03:30:36;7.73;;;4.30;;
2544;SDS011;36212;48.838;9.142;2023-07-28T03:33:08;4.03;;;3.73;;
2544;SDS011;36212;48.838;9.142;2023-07-28T03:35:40;3.73;;;3.43;;
2544;SDS011;36212;48.838;9.142;2023-07-28T03:38:12;3.63;;;3.43;;
2544;SDS011;36212;48.838;9.142;2023-07-28T03:40:44;3.80;;;3.40;;
2544;SDS011;36212;48.838;9.142;2023-07-28T03:43:16;5.93;;;3.57;;
2544;SDS011;36212;48.838;9.142;2023-07-28T03:45:49;4.00;;;3.70;;
2544;SDS011;36212;48.838;9.142;2023-07-28T03:48:21;4.53;;;4.13;;
2544;SDS011;36212;48.838;9.142;2023-07-28T03:50:53;3.83;;;3.53;;
2544;SDS011;36212;48.838;9.142;2023-07-28T03:53:25;4.20;;;3.90;;
2544;SDS011;36212;48.838;9.142;2023-07-28T03:55:57;4.60;;;4.20;;
2544;SDS011;36212;48.838;9.142;2023-07-28T03:58:29;3.80;;;3.60;;
2544;SDS011;36212;48.838;9.142;2023-07-28T04:01:02;3.97;;;3.70;;
2544;SDS011;36212;48.838;9.142;2023-07-28T04:03:37;4.33;;;4.03;;
2544;SDS011;36212;48.838;9.142;2023-07-28T04:06:10;3.90;;;3.70;;
2544;SDS011;36212;48.838;9.142;2023-07-28T04:08:45;3.70;;;3.00;;
2544;SDS011;36212;48.838;9.142;2023-07-28T04:11:17;3.30;;;3.10;;
2544;SDS011;36212;48.838;9.142;2023-07-28T04:13:50;3.87;;;3.57;;
2544;SDS011;36212;48.838;9.142;2023-07-28T04:16:22;3.77;;;3.57;;
2544;SDS011;36212;48.838;9.142;2023-07-28T04:18:54;3.80;;;3.50;;
2544;SDS011;36212;48.838;9.142;2023-07-28T04:21:26;4.13;;;3.83;;
2544;SDS011;36212;48.838;9.142;2023-07-28T04:23:58;3.97;;;3.57;;
2544;SDS011;36212;48.838;9.142;2023-07-28T04:26:30;4.17;;;3.50;;
2544;SDS011;36212;48.838;9.142;2023-07-28T04:29:03;3.73;;;3.43;;
2544;SDS011;36212;48.838;9.142;2023-07-28T04:31:35;3.90;;;3.70;;
2544;SDS011;36212;48.838;9.142;2023-07-28T04:34:08;4.07;;;3.77;;
2544;SDS011;36212;48.838;9.142;2023-07-28T04:36:40;4.40;;;4.00;;
2544;SDS011;36212;48.838;9.142;2023-07-28T04:39:12;4.50;;;4.20;;
2544;SDS011;36212;48.838;9.142;2023-07-28T04:41:44;4.07;;;3.80;;
2544;SDS011;36212;48.838;9.142;2023-07-28T04:44:17;4.57;;;4.03;;
2544;SDS011;36212;48.838;9.142;2023-07-28T04:46:50;3.60;;;3.40;;
2544;SDS011;36212;48.838;9.142;2023-07-28T04:49:22;4.40;;;4.10;;
2544;SDS011;36212;48.838;9.142;2023-07-28T04:51:54;4.27;;;3.97;;
2544;SDS011;36212;48.838;9.142;2023-07-28T04:54:28;4.57;;;4.27;;
2544;SDS011;36212;48.838;9.142;2023-07-28T04:57:00;5.10;;;4.70;;
2544;SDS011;36212;48.838;9.142;2023-07-28T04:59:32;4.80;;;4.40;;
2544;SDS011;36212;48.838;9.142;2023-07-28T05:02:04;4.37;;;3.97;;
2544;SDS011;36212;48.838;9.142;2023-07-28T05:04:37;4.40;;;4.00;;
2544;SDS011;36212;48.838;9.142;2023-07-28T05:07:09;4.00;;;3.70;;
2544;SDS011;36212;48.838;9.142;2023-07-28T05:09:41;4.77;;;4.50;;
2544;SDS011;36212;48.838;9.142;2023-07-28T05:12:15;4.60;;;4.30;;
2544;SDS011;36212;48.838;9.142;2023-07-28T05:14:47;4.17;;;3.93;;
2544;SDS011;36212;48.838;9.142;2023-07-28T05:17:19;4.50;;;4.20;;
2544;SDS011;36212;48.838;9.142;2023-07-28T05:19:51;4.97;;;4.67;;
2544;SDS011;36212;48.838;9.142;2023-07-28T05:22:23;4.77;;;4.37;;
2544;SDS011;36212;48.838;9.142;2023-07-28T05:24:55;4.37;;;4.07;;
2544;SDS011;36212;48.838;9.142;2023-07-28T05:27:28;4.57;;;4.23;;
2544;SDS011;36212;48.838;9.142;2023-07-28T05:30:00;5.07;;;4.67;;
2544;SDS011;36212;48.838;9.142;2023-07-28T05:32:32;4.20;;;4.00;;
2544;SDS011;36212;48.838;9.142;2023-07-28T05:35:05;4.53;;;4.23;;
2544;SDS011;36212;48.838;9.142;2023-07-28T05:37:38;5.27;;;4.77;;
2544;SDS011;36212;48.838;9.142;2023-07-28T05:40:10;6.10;;;4.97;;
2544;SDS011;36212;48.838;9.142;2023-07-28T05:42:43;5.13;;;4.80;;
2544;SDS011;36212;48.838;9.142;2023-07-28T05:45:15;5.10;;;4.70;;
2544;SDS011;36212;48.838;9.142;2023-07-28T05:47:48;5.30;;;4.80;;
2544;SDS011;36212;48.838;9.142;2023-07-28T05:50:20;5.60;;;4.97;;
2544;SDS011;36212;48.838;9.142;2023-07-28T05:52:52;4.70;;;4.40;;
2544;SDS011;36212;48.838;9.142;2023-07-28T05:55:24;5.00;;;4.70;;
2544;SDS011;36212;48.838;9.142;2023-07-28T05:57:59;4.97;;;4.67;;
2544;SDS011;36212;48.838;9.142;2023-07-28T06:00:31;5.60;;;5.10;;
2544;SDS011;36212;48.838;9.142;2023-07-28T06:03:03;5.17;;;4.80;;
2544;SDS011;36212;48.838;9.142;2023-07-28T06:05:39;5.67;;;5.37;;
2544;SDS011;36212;48.838;9.142;2023-07-28T06:08:12;5.63;;;5.23;;
2544;SDS011;36212;48.838;9.142;2023-07-28T06:10:45;5.97;;;5.57;;
2544;SDS011;36212;48.838;9.142;2023-07-28T06:13:17;4.70;;;4.40;;
2544;SDS011;36212;48.838;9.142;2023-07-28T06:15:49;5.07;;;4.77;;
2544;SDS011;36212;48.838;9.142;2023-07-28T06:18:26;5.10;;;4.70;;
2544;SDS011;36212;48.838;9.142;2023-07-28T06:20:58;5.60;;;5.20;;
2544;SDS011;36212;48.838;9.142;2023-07-28T06:23:30;4.83;;;4.53;;
2544;SDS011;36212;48.838;9.142;2023-07-28T06:26:03;7.30;;;5.50;;
2544;SDS011;36212;48.838;9.142;2023-07-28T06:28:35;5.53;;;5.03;;
2544;SDS011;36212;48.838;9.142;2023-07-28T06:31:09;6.03;;;5.10;;
2544;SDS011;36212;48.838;9.142;2023-07-28T06:33:42;6.47;;;5.87;;
2544;SDS011;36212;48.838;9.142;2023-07-28T06:36:14;6.00;;;5.53;;
2544;SDS011;36212;48.838;9.142;2023-07-28T06:38:48;6.37;;;5.77;;
2544;SDS011;36212;48.838;9.142;2023-07-28T06:41:23;5.47;;;4.97;;
2544;SDS011;36212;48.838;9.142;2023-07-28T06:43:56;5.73;;;5.33;;
2544;SDS011;36212;48.838;9.142;2023-07-28T06:46:29;6.67;;;6.10;;
2544;SDS011;36212;48.838;9.142;2023-07-28T06:49:02;5.53;;;5.00;;
2544;SDS011;36212;48.838;9.142;2023-07-28T06:51:35;5.57;;;5.07;;
2544;SDS011;36212;48.838;9.142;2023-07-28T06:54:07;5.90;;;5.40;;
2544;SDS011;36212;48.838;9.142;2023-07-28T06:56:43;6.33;;;5.83;;
2544;SDS011;36212;48.838;9.142;2023-07-28T06:59:16;5.87;;;5.40;;
2544;SDS011;36212;48.838;9.142;2023-07-28T07:01:53;6.70;;;6.00;;
2544;SDS011;36212;48.838;9.142;2023-07-28T07:04:25;6.07;;;5.57;;
2544;SDS011;36212;48.838;9.142;2023-07-28T07:06:57;6.37;;;5.87;;
2544;SDS011;36212;48.838;9.142;2023-07-28T07:09:30;6.10;;;5.60;;
2544;SDS011;36212;48.838;9.142;2023-07-28T07:12:02;5.63;;;5.13;;
2544;SDS011;36212;48.838;9.142;2023-07-28T07:14:36;6.40;;;5.90;;
2544;SDS011;36212;48.838;9.142;2023-07-28T07:17:10;6.10;;;5.50;;
2544;SDS011;36212;48.838;9.142;2023-07-28T07:19:42;6.83;;;6.20;;
2544;SDS011;36212;48.838;9.142;2023-07-28T07:22:15;6.40;;;5.00;;
2544;SDS011;36212;48.838;9.142;2023-07-28T07:24:48;6.03;;;5.43;;
2544;SDS011;36212;48.838;9.142;2023-07-28T07:27:20;5.20;;;4.73;;
2544;SDS011;36212;48.838;9.142;2023-07-28T07:29:54;5.70;;;5.20;;
2544;SDS011;36212;48.838;9.142;2023-07-28T07:32:26;5.47;;;5.07;;
2544;SDS011;36212;48.838;9.142;2023-07-28T07:34:59;6.17;;;5.53;;
2544;SDS011;36212;48.838;9.142;2023-07-28T07:37:33;6.27;;;5.77;;
2544;SDS011;36212;48.838;9.142;2023-07-28T07:40:06;4.53;;;4.23;;
2544;SDS011;36212;48.838;9.142;2023-07-28T07:45:18;6.57;;;5.57;;
2544;SDS011;36212;48.838;9.142;2023-07-28T07:47:50;4.70;;;4.40;;
2544;SDS011;36212;48.838;9.142;2023-07-28T07:50:22;5.07;;;4.67;;
2544;SDS011;36212;48.838;9.142;2023-07-28T07:52:55;4.77;;;4.40;;
2544;SDS011;36212;48.838;9.142;2023-07-28T07:55:27;4.17;;;3.87;;
2544;SDS011;36212;48.838;9.142;2023-07-28T07:58:01;3.83;;;3.53;;
2544;SDS011;36212;48.838;9.142;2023-07-28T08:00:34;3.93;;;3.73;;
2544;SDS011;36212;48.838;9.142;2023-07-28T08:03:08;4.93;;;4.37;;
2544;SDS011;36212;48.838;9.142;2023-07-28T08:05:41;4.87;;;4.40;;
2544;SDS011;36212;48.838;9.142;2023-07-28T08:08:14;4.20;;;4.00;;
2544;SDS011;36212;48.838;9.142;2023-07-28T08:10:50;4.40;;;4.10;;
2544;SDS011;36212;48.838;9.142;2023-07-28T08:13:22;4.63;;;4.10;;
2544;SDS011;36212;48.838;9.142;2023-07-28T08:15:56;4.57;;;4.17;;
2544;SDS011;36212;48.838;9.142;2023-07-28T08:18:28;3.97;;;3.67;;
2544;SDS011;36212;48.838;9.142;2023-07-28T08:21:02;4.10;;;3.70;;
2544;SDS011;36212;48.838;9.142;2023-07-28T08:23:34;3.90;;;3.67;;
2544;SDS011;36212;48.838;9.142;2023-07-28T08:26:07;4.67;;;4.30;;
2544;SDS011;36212;48.838;9.142;2023-07-28T08:28:39;4.53;;;4.13;;
2544;SDS011;36212;48.838;9.142;2023-07-28T08:31:12;3.93;;;3.63;;
2544;SDS011;36212;48.838;9.142;2023-07-28T08:33:44;4.20;;;4.00;;
2544;SDS011;36212;48.838;9.142;2023-07-28T08:36:17;5.40;;;4.50;;
2544;SDS011;36212;48.838;9.142;2023-07-28T08:38:49;5.60;;;4.50;;
2544;SDS011;36212;48.838;9.142;2023-07-28T08:41:23;3.57;;;3.37;;
2544;SDS011;36212;48.838;9.142;2023-07-28T08:43:55;4.27;;;3.90;;
2544;SDS011;36212;48.838;9.142;2023-07-28T08:46:28;3.80;;;3.60;;
2544;SDS011;36212;48.838;9.142;2023-07-28T08:49:04;4.73;;;4.30;;
2544;SDS011;36212;48.838;9.142;2023-07-28T08:51:40;4.07;;;3.77;;
2544;SDS011;36212;48.838;9.142;2023-07-28T08:54:27;4.63;;;4.07;;
2544;SDS011;36212;48.838;9.142;2023-07-28T08:56:59;4.60;;;4.30;;
2544;SDS011;36212;48.838;9.142;2023-07-28T08:59:41;3.83;;;3.53;;
2544;SDS011;36212;48.838;9.142;2023-07-28T09:02:20;4.20;;;3.90;;
2544;SDS011;36212;48.838;9.142;2023-07-28T09:04:53;4.53;;;3.33;;
2544;SDS011;36212;48.838;9.142;2023-07-28T09:07:25;3.20;;;3.10;;
2544;SDS011;36212;48.838;9.142;2023-07-28T09:10:04;4.50;;;4.20;;
2544;SDS011;36212;48.838;9.142;2023-07-28T09:12:48;3.93;;;3.73;;
2544;SDS011;36212;48.838;9.142;2023-07-28T09:15:21;4.10;;;3.70;;
2544;SDS011;36212;48.838;9.142;2023-07-28T09:17:54;3.47;;;3.27;;
2544;SDS011;36212;48.838;9.142;2023-07-28T09:20:34;5.10;;;4.30;;
2544;SDS011;36212;48.838;9.142;2023-07-28T09:23:10;3.63;;;3.33;;
2544;SDS011;36212;48.838;9.142;2023-07-28T09:25:46;4.13;;;3.53;;
2544;SDS011;36212;48.838;9.142;2023-07-28T09:28:19;3.50;;;3.20;;
2544;SDS011;36212;48.838;9.142;2023-07-28T09:30:52;3.50;;;3.30;;
2544;SDS011;36212;48.838;9.142;2023-07-28T09:33:30;4.13;;;3.83;;
2544;SDS011;36212;48.838;9.142;2023-07-28T09:36:12;4.20;;;4.00;;
2544;SDS011;36212;48.838;9.142;2023-07-28T09:38:54;4.37;;;3.90;;
2544;SDS011;36212;48.838;9.142;2023-07-28T09:41:29;6.10;;;5.50;;
2544;SDS011;36212;48.838;9.142;2023-07-28T09:44:02;5.90;;;4.70;;
2544;SDS011;36212;48.838;9.142;2023-07-28T09:46:35;5.73;;;5.20;;
2544;SDS011;36212;48.838;9.142;2023-07-28T09:49:29;5.80;;;5.20;;
2544;SDS011;36212;48.838;9.142;2023-07-28T09:52:16;6.73;;;5.47;;
2544;SDS011;36212;48.838;9.142;2023-07-28T09:54:52;5.57;;;5.10;;
2544;SDS011;36212;48.838;9.142;2023-07-28T09:57:30;5.53;;;5.00;;
2544;SDS011;36212;48.838;9.142;2023-07-28T10:00:15;4.40;;;4.13;;
2544;SDS011;36212;48.838;9.142;2023-07-28T10:02:50;4.43;;;4.13;;
2544;SDS011;36212;48.838;9.142;2023-07-28T10:05:26;5.50;;;4.43;;
2544;SDS011;36212;48.838;9.142;2023-07-28T10:08:00;5.63;;;4.30;;
2544;SDS011;36212;48.838;9.142;2023-07-28T10:10:35;4.80;;;4.50;;
2544;SDS011;36212;48.838;9.142;2023-07-28T10:13:18;5.07;;;4.67;;
2544;SDS011;36212;48.838;9.142;2023-07-28T10:15:53;4.80;;;3.90;;
2544;SDS011;36212;48.838;9.142;2023-07-28T10:18:26;4.23;;;3.93;;
2544;SDS011;36212;48.838;9.142;2023-07-28T10:21:04;5.00;;;4.60;;
2544;SDS011;36212;48.838;9.142;2023-07-28T10:23:40;5.00;;;4.60;;
2544;SDS011;36212;48.838;9.142;2023-07-28T10:26:14;5.30;;;4.27;;
2544;SDS011;36212;48.838;9.142;2023-07-28T10:29:15;5.13;;;4.07;;
2544;SDS011;36212;48.838;9.142;2023-07-28T10:31:50;4.07;;;3.70;;
2544;SDS011;36212;48.838;9.142;2023-07-28T10:34:24;4.30;;;3.90;;
2544;SDS011;36212;48.838;9.142;2023-07-28T10:36:58;4.03;;;3.73;;
2544;SDS011;36212;48.838;9.142;2023-07-28T10:39:31;3.40;;;3.20;;
2544;SDS011;36212;48.838;9.142;2023-07-28T10:42:11;6.97;;;3.40;;
2544;SDS011;36212;48.838;9.142;2023-07-28T10:44:43;4.20;;;3.80;;
2544;SDS011;36212;48.838;9.142;2023-07-28T10:47:16;3.90;;;3.60;;
2544;SDS011;36212;48.838;9.142;2023-07-28T10:49:50;3.83;;;3.53;;
2544;SDS011;36212;48.838;9.142;2023-07-28T10:52:23;4.10;;;3.60;;
2544;SDS011;36212;48.838;9.142;2023-07-28T10:54:57;3.43;;;3.23;;
2544;SDS011;36212;48.838;9.142;2023-07-28T10:57:29;3.90;;;3.47;;
2544;SDS011;36212;48.838;9.142;2023-07-28T11:00:02;3.60;;;3.40;;
2544;SDS011;36212;48.838;9.142;2023-07-28T11:02:41;3.73;;;3.17;;
2544;SDS011;36212;48.838;9.142;2023-07-28T11:05:20;3.53;;;3.30;;
2544;SDS011;36212;48.838;9.142;2023-07-28T11:08:01;2.93;;;2.80;;
2544;SDS011;36212;48.838;9.142;2023-07-28T11:10:35;3.37;;;3.17;;
2544;SDS011;36212;48.838;9.142;2023-07-28T11:13:09;4.43;;;2.30;;
2544;SDS011;36212;48.838;9.142;2023-07-28T11:16:01;2.10;;;2.00;;
2544;SDS011;36212;48.838;9.142;2023-07-28T11:18:34;1.60;;;1.50;;
2544;SDS011;36212;48.838;9.142;2023-07-28T11:21:07;1.60;;;1.50;;
2544;SDS011;36212;48.838;9.142;2023-07-28T11:23:43;1.87;;;1.77;;
2544;SDS011;36212;48.838;9.142;2023-07-28T11:26:17;2.07;;;1.97;;
2544;SDS011;36212;48.838;9.142;2023-07-28T11:28:50;1.67;;;1.57;;
2544;SDS011;36212;48.838;9.142;2023-07-28T11:31:25;1.50;;;1.40;;
2544;SDS011;36212;48.838;9.142;2023-07-28T11:33:59;1.93;;;1.63;;
2544;SDS011;36212;48.838;9.142;2023-07-28T11:36:31;2.80;;;1.70;;
2544;SDS011;36212;48.838;9.142;2023-07-28T11:39:04;1.87;;;1.70;;
2544;SDS011;36212;48.838;9.142;2023-07-28T11:41:37;5.87;;;2.90;;
2544;SDS011;36212;48.838;9.142;2023-07-28T11:44:12;1.70;;;1.60;;
2544;SDS011;36212;48.838;9.142;2023-07-28T11:46:45;9.03;;;2.70;;
2544;SDS011;36212;48.838;9.142;2023-07-28T11:49:18;2.10;;;1.90;;
2544;SDS011;36212;48.838;9.142;2023-07-28T11:51:54;2.63;;;1.53;;
2544;SDS011;36212;48.838;9.142;2023-07-28T11:54:30;1.80;;;1.70;;
2544;SDS011;36212;48.838;9.142;2023-07-28T11:57:04;1.70;;;1.60;;
2544;SDS011;36212;48.838;9.142;2023-07-28T11:59:40;5.60;;;2.30;;
2544;SDS011;36212;48.838;9.142;2023-07-28T12:02:13;1.73;;;1.63;;
2544;SDS011;36212;48.838;9.142;2023-07-28T12:04:57;1.90;;;1.80;;
2544;SDS011;36212;48.838;9.142;2023-07-28T12:07:47;1.80;;;1.70;;
2544;SDS011;36212;48.838;9.142;2023-07-28T12:10:20;1.90;;;1.80;;
2544;SDS011;36212;48.838;9.142;2023-07-28T12:12:57;2.30;;;2.10;;
2544;SDS011;36212;48.838;9.142;2023-07-28T12:15:40;2.27;;;2.17;;
2544;SDS011;36212;48.838;9.142;2023-07-28T12:18:16;2.00;;;1.90;;
2544;SDS011;36212;48.838;9.142;2023-07-28T12:20:59;2.27;;;2.07;;
2544;SDS011;36212;48.838;9.142;2023-07-28T12:23:32;2.20;;;2.10;;
2544;SDS011;36212;48.838;9.142;2023-07-28T12:26:08;2.23;;;1.50;;
2544;SDS011;36212;48.838;9.142;2023-07-28T12:28:41;2.70;;;2.00;;
2544;SDS011;36212;48.838;9.142;2023-07-28T12:31:16;2.07;;;1.97;;
2544;SDS011;36212;48.838;9.142;2023-07-28T12:33:49;2.20;;;2.00;;
2544;SDS011;36212;48.838;9.142;2023-07-28T12:36:33;2.30;;;2.20;;
2544;SDS011;36212;48.838;9.142;2023-07-28T12:39:08;2.20;;;2.03;;
2544;SDS011;36212;48.838;9.142;2023-07-28T12:41:44;2.30;;;2.13;;
2544;SDS011;36212;48.838;9.142;2023-07-28T12:44:38;2.90;;;2.00;;
2544;SDS011;36212;48.838;9.142;2023-07-28T12:47:15;2.77;;;2.57;;
2544;SDS011;36212;48.838;9.142;2023-07-28T12:49:50;2.07;;;1.87;;
2544;SDS011;36212;48.838;9.142;2023-07-28T12:52:23;2.53;;;2.43;;
2544;SDS011;36212;48.838;9.142;2023-07-28T12:55:17;2.93;;;2.17;;
2544;SDS011;36212;48.838;9.142;2023-07-28T12:57:50;2.30;;;2.10;;
2544;SDS011;36212;48.838;9.142;2023-07-28T13:00:23;1.90;;;1.80;;
2544;SDS011;36212;48.838;9.142;2023-07-28T13:02:59;2.30;;;2.13;;
2544;SDS011;36212;48.838;9.142;2023-07-28T13:05:31;2.90;;;2.40;;
2544;SDS011;36212;48.838;9.142;2023-07-28T13:08:03;2.70;;;2.50;;
2544;SDS011;36212;48.838;9.142;2023-07-28T13:10:40;2.63;;;2.37;;
2544;SDS011;36212;48.838;9.142;2023-07-28T13:13:16;2.80;;;2.60;;
2544;SDS011;36212;48.838;9.142;2023-07-28T13:15:48;2.30;;;2.20;;
2544;SDS011;36212;48.838;9.142;2023-07-28T13:18:21;3.00;;;2.80;;
2544;SDS011;36212;48.838;9.142;2023-07-28T13:20:55;2.60;;;2.40;;
2544;SDS011;36212;48.838;9.142;2023-07-28T13:23:29;3.10;;;2.90;;
2544;SDS011;36212;48.838;9.142;2023-07-28T13:26:01;3.47;;;3.27;;
2544;SDS011;36212;48.838;9.142;2023-07-28T13:28:38;3.73;;;3.33;;
2544;SDS011;36212;48.838;9.142;2023-07-28T13:31:17;3.30;;;3.10;;
2544;SDS011;36212;48.838;9.142;2023-07-28T13:33:50;3.30;;;3.10;;
2544;SDS011;36212;48.838;9.142;2023-07-28T13:36:22;3.80;;;3.60;;
2544;SDS011;36212;48.838;9.142;2023-07-28T13:38:54;3.33;;;3.07;;
2544;SDS011;36212;48.838;9.142;2023-07-28T13:41:27;4.10;;;3.77;;
2544;SDS011;36212;48.838;9.142;2023-07-28T13:43:59;4.40;;;4.10;;
2544;SDS011;36212;48.838;9.142;2023-07-28T13:46:34;4.47;;;3.83;;
2544;SDS011;36212;48.838;9.142;2023-07-28T13:49:06;6.63;;;3.90;;
2544;SDS011;36212;48.838;9.142;2023-07-28T13:51:39;3.73;;;3.47;;
2544;SDS011;36212;48.838;9.142;2023-07-28T13:54:14;3.83;;;3.40;;
2544;SDS011;36212;48.838;9.142;2023-07-28T13:56:52;3.87;;;3.57;;
2544;SDS011;36212;48.838;9.142;2023-07-28T13:59:28;4.10;;;3.30;;
2544;SDS011;36212;48.838;9.142;2023-07-28T14:02:02;5.73;;;4.00;;
2544;SDS011;36212;48.838;9.142;2023-07-28T14:04:35;3.80;;;3.57;;
2544;SDS011;36212;48.838;9.142;2023-07-28T14:07:08;4.30;;;4.00;;
2544;SDS011;36212;48.838;9.142;2023-07-28T14:09:41;4.20;;;3.80;;
2544;SDS011;36212;48.838;9.142;2023-07-28T14:12:16;6.53;;;4.00;;
2544;SDS011;36212;48.838;9.142;2023-07-28T14:14:50;4.70;;;4.30;;
2544;SDS011;36212;48.838;9.142;2023-07-28T14:17:22;5.77;;;4.57;;
2544;SDS011;36212;48.838;9.142;2023-07-28T14:19:56;5.37;;;3.90;;
2544;SDS011;36212;48.838;9.142;2023-07-28T14:22:34;4.37;;;3.97;;
2544;SDS011;36212;48.838;9.142;2023-07-28T14:25:07;4.40;;;4.00;;
2544;SDS011;36212;48.838;9.142;2023-07-28T14:27:40;4.53;;;4.10;;
2544;SDS011;36212;48.838;9.142;2023-07-28T14:30:12;4.60;;;4.30;;
2544;SDS011;36212;48.838;9.142;2023-07-28T14:32:45;3.97;;;3.67;;
2544;SDS011;36212;48.838;9.142;2023-07-28T14:35:18;4.03;;;3.77;;
2544;SDS011;36212;48.838;9.142;2023-07-28T14:37:50;3.20;;;3.00;;
2544;SDS011;36212;48.838;9.142;2023-07-28T14:40:23;4.40;;;4.10;;
2544;SDS011;36212;48.838;9.142;2023-07-28T14:42:56;4.17;;;3.77;;
2544;SDS011;36212;48.838;9.142;2023-07-28T14:45:29;4.07;;;3.77;;
2544;SDS011;36212;48.838;9.142;2023-07-28T14:48:03;4.63;;;4.23;;
2544;SDS011;36212;48.838;9.142;2023-07-28T14:50:35;4.60;;;4.30;;
2544;SDS011;36212;48.838;9.142;2023-07-28T14:56:09;4.77;;;4.50;;
2544;SDS011;36212;48.838;9.142;2023-07-28T14:58:41;4.07;;;3.87;;
2544;SDS011;36212;48.838;9.142;2023-07-28T15:01:15;4.40;;;4.10;;
2544;SDS011;36212;48.838;9.142;2023-07-28T15:03:47;4.90;;;4.40;;
2544;SDS011;36212;48.838;9.142;2023-07-28T15:06:19;5.43;;;4.53;;
2544;SDS011;36212;48.838;9.142;2023-07-28T15:08:52;4.30;;;3.90;;
2544;SDS011;36212;48.838;9.142;2023-07-28T15:11:25;4.97;;;4.57;;
2544;SDS011;36212;48.838;9.142;2023-07-28T15:13:57;4.60;;;4.30;;
2544;SDS011;36212;48.838;9.142;2023-07-28T15:16:30;4.60;;;4.20;;
2544;SDS011;36212;48.838;9.142;2023-07-28T15:19:03;7.00;;;4.20;;
2544;SDS011;36212;48.838;9.142;2023-07-28T15:21:36;4.67;;;4.47;;
2544;SDS011;36212;48.838;9.142;2023-07-28T15:24:09;4.50;;;4.20;;
2544;SDS011;36212;48.838;9.142;2023-07-28T15:26:41;4.20;;;3.90;;
2544;SDS011;36212;48.838;9.142;2023-07-28T15:29:21;4.97;;;4.60;;
2544;SDS011;36212;48.838;9.142;2023-07-28T15:31:53;5.37;;;4.97;;
2544;SDS011;36212;48.838;9.142;2023-07-28T15:34:26;5.50;;;4.30;;
2544;SDS011;36212;48.838;9.142;2023-07-28T15:37:01;4.90;;;4.60;;
2544;SDS011;36212;48.838;9.142;2023-07-28T15:39:35;4.30;;;4.10;;
2544;SDS011;36212;48.838;9.142;2023-07-28T15:42:08;4.87;;;4.57;;
2544;SDS011;36212;48.838;9.142;2023-07-28T15:44:40;4.60;;;4.30;;
2544;SDS011;36212;48.838;9.142;2023-07-28T15:47:13;5.27;;;4.87;;
2544;SDS011;36212;48.838;9.142;2023-07-28T15:49:45;5.87;;;4.57;;
2544;SDS011;36212;48.838;9.142;2023-07-28T15:52:20;4.93;;;4.63;;
2544;SDS011;36212;48.838;9.142;2023-07-28T15:54:53;4.70;;;4.40;;
2544;SDS011;36212;48.838;9.142;2023-07-28T15:57:25;4.17;;;3.87;;